22ème Rallye Terre des Causses
Championnat de France des Rallyes sur Terre
1 1 CUOQ Jean-Marie/GRANDEMANGE Marielle Citroën C4 WRC FA 8W 12:18,1 102km/h 1
2 3 MAURIN Julien/URAL Olivier Citroën DS3 WRC A 8W 12:39,1 +00:21,0 +00:21,0 1
3 4 DURBEC Thibault/RENUCCI Jacques-Julien Citroën DS3 WRC A 8W 12:49,0 +00:30,9 +00:09,9 1
4 11 GILBERT Quentin/JAMOUL Renaud Skoda Fabia R5 R 5 12:55,9 +00:37,8 +00:06,9
5 12 BERFA Jordan/AUGUSTIN Damien HUYNDAI i20 R5 R 5 12:58,2 +00:40,1 +00:02,3 1
6 14 FALCO Jean-Marc/BOUERI Jonathan Peugeot 208 T16 R 5 13:00,3 +00:42,2 +00:02,1 1
7 18 PONS Xavier/ORIOL Julia Peugeot 208 T16 R 5 13:01,1 +00:43,0 +00:00,8
8 9 FERAUD Cyrille/DUCHEMIN Aymeric Citroën C4 WRC FA 8W 13:08,6 +00:50,5 +00:07,5 1
9 19 MORDACQ Arnaud/RATIER Marie-Noelle Mitsubishi Lancer Evo9 N 4 13:20,5 +01:02,4 +00:11,9 1
10 5 CHAYNES Gary/TRIBOUT Christian Citroën C4 WRC FA 8W 13:30,0 +01:11,9 +00:09,5 1
11 7 CLOT Charles/LEON Thierry Ford Fiesta WRC A 8W 13:44,1 +01:26,0 +00:14,1 1
12 6 ROUSSET Eric/GOSSET Jean-David Citroën Xsara WRC FA 8W 13:44,1 +01:26,0
13 16 PETIT Jean-Eric/MAURIN Mathieu Ford Fiesta R5 R 5 13:44,4 +01:26,3 +00:00,3 1
14 38 MOREL Jean-Luc/GIDEL Philippe Subaru Impreza WRX FN 4 13:47,6 +01:29,5 +00:03,2
15 21 GIRAUD Emmanuel/GIRAUD Grégory Mitsubishi Lancer Evo8 FA 8 13:50,4 +01:32,3 +00:02,8
16 40 MARTI Christian/LAVIALE Jean-Marc Mitsubishi Lancer Evo9 N 4 13:55,7 +01:37,6 +00:05,3 1
17 8 RAOUX Jean-Michel/MAGAT Laurent Citroën DS3 WRC A 8W 13:56,1 +01:38,0 +00:00,4 1
18 56 DE MEVIUS Guillaume/LOUKA Louis Peugeot 208 VTI R 2 13:56,3 +01:38,2 +00:00,2 3
19 27 TARDY Guillaume/CHOUDEY Marc-Emilien Subaru Impreza FA 8 13:59,2 +01:41,1 +00:02,9
20 17 FRAU Richard/GASTINEL Jean-Francois Ford Fiesta R5 R 5 14:02,7 +01:44,6 +00:03,5 1
21 37 DESANGLES Yanis/THERON Nicolas Subaru Impreza WRX R 4 14:03,2 +01:45,1 +00:00,5
22 54 PELLIER Laurent/NEYRET-GIGOT Benoît Peugeot 208 VTI R 2 14:04,3 +01:46,2 +00:01,1 3
23 20 GAIDOZ Hervé/RICHARD François Subaru Impreza WRX FA 8 14:04,4 +01:46,3 +00:00,1 1
24 57 LLARENA Efren/FERNANDEZ Sara Peugeot 208 VTI R 2 14:04,9 +01:46,8 +00:00,5 3
25 36 SALIN Daniel/SALIN Brigitte Subaru Impreza WRX R 4 14:04,9 +01:46,8
26 60 LARIO Taisko/RYYNANEN Sami Peugeot 208 VTI R 2 14:05,5 +01:47,4 +00:00,6 3
27 61 GAGO Diogo/DEL BARRIO GARCIA Rodolfo Peugeot 208 VTI R 2 14:06,5 +01:48,4 +00:01,0 3
28 59 RIBAUD Quentin/BALME Benoît Peugeot 208 VTI R 2 14:07,4 +01:49,3 +00:00,9 1 2 3
29 39 BENIER Thomas/PRASSE Cédric Subaru Impreza WRX N 4 14:08,9 +01:50,8 +00:01,5 1
30 15 BESSON Jean-Pascal/ROISSAC Patrice Skoda Fabia R5 R 5 14:11,3 +01:53,2 +00:02,4 1
31 50 VEYRARD Didier/TARDY Vincent Subaru Impreza STI FN 4 14:14,0 +01:55,9 +00:02,7
32 30 CHIAVARO Daniel/DUPANLOUP Alexandra Subaru Impreza Sti FA 8 14:14,3 +01:56,2 +00:00,3
33 41 FONTAINE Fabien/FONTAINE Bastien Mitsubishi Lancer Evo5 FN 4 14:16,5 +01:58,4 +00:02,2
34 62 SAHILA Aki/SUORSA Rami Peugeot 208 VTI R 2 14:16,9 +01:58,8 +00:00,4 3
35 42 CONDAMINES Florian/DELMAS Cyril Subaru Impreza N 4 14:20,3 +02:02,2 +00:03,4
36 23 FILLAYRE Jacques/DERRE Cyril Mitsubishi Lancer Evo4 FA 8 14:21,9 +02:03,8 +00:01,6
37 43 PUEL Gérard/PUEL Caroline Mitsubishi Lancer Evo8 FN 4 14:23,0 +02:04,9 +00:01,1
38 116 RAYNAUD Gabriel/JULIEN William Seat Ibiza GTI F2 14 14:24,1 +02:06,0 +00:01,1 1 2
39 10 "PIANO"/COTTU Paolo Subaru Impreza WRC FA 8W 14:26,7 +02:08,6 +00:02,6
40 63 WAGEMANS Joachim/DU PAN Anton Peugeot 208 VTI R 2 14:28,8 +02:10,7 +00:02,1 3
41 65 BOSCH Florentin/LAZZARINI Jean-Paul Peugeot 208 VTI R 2 14:29,2 +02:11,1 +00:00,4 3
42 44 GUIGNARD Eric/MEFFRE Didier Subaru Impreza N 4 14:29,9 +02:11,8 +00:00,7
43 64 HAIGH-SMITH Ashley/BURNS Niall Peugeot 208 VTI R 2 14:31,9 +02:13,8 +00:02,0 3
44 72 TAVENEAU Sam/POINT Clément Peugeot 208 VTI R 2 14:34,2 +02:16,1 +00:02,3 3
45 81 VIALLE Lilian/GHIRARDELLO Manuel Renault Clio R3 R 3 14:35,2 +02:17,1 +00:01,0 1 2
46 75 VENTURINI Henri/CORONA Fabrice Peugeot 208 VTI R 2 14:36,3 +02:18,2 +00:01,1 3
47 53 VITAL Jean-Pierre/DECOUZON Pierre Citroën Saxo VTS F2 13 14:37,8 +02:19,7 +00:01,5 1 2
48 83 MARCHAL Eddy/JOLE Damien Citroën Saxo T4 FA 6K 14:37,8 +02:19,7 1
49 73 MOLLARD Alexandre/EYMIN PETOT Nicolas Peugeot 208 VTI R 2 14:38,4 +02:20,3 +00:00,6 3
50 25 GIORDANENGO Jimmy/DELAMOTTE Alexis Mitsubishi Lancer Evo7 FA 8 14:39,3 +02:21,2 +00:00,9
51 52 JULIA David/AUBERTIN Ludovic Peugeot 206 Rc F2 14 14:40,1 +02:22,0 +00:00,8 1 2
52 124 MASCLAUX Arnaud/CORMERAIS Loïc Renault Clio Ragnotti F2 14 14:42,3 +02:24,2 +00:02,2 1 2
53 76 COLNEY Thierry/FORTMANN Patrick Citroën DS3 R3 R 3 14:43,6 +02:25,5 +00:01,3 1 2
54 70 PINHEIRO Karl-Alexandre/LE FLOCH Franck Peugeot 208 VTI R 2 14:44,6 +02:26,5 +00:01,0 3
55 48 PRIOLO Laurent/DALMAS Yannick Mitsubishi Lancer Evo9 N 4 14:45,7 +02:27,6 +00:01,1
56 86 MARCOBAL Thierry/MARCOBAL-BASTIDE Cantin Citroën Saxo T4 FA 6K 14:46,2 +02:28,1 +00:00,5
57 46 LOPEZ Yannick/LOPEZ Brice Subaru Impreza WRX N 4 14:46,9 +02:28,8 +00:00,7
58 69 AUTIERO Matthieu/ANDREU Axel Peugeot 208 VTI R 2 14:48,3 +02:30,2 +00:01,4 3
59 94 JOUINES Jean/CHABBERT Martin Opel Adam Rally R FR2 14:49,7 +02:31,6 +00:01,4
60 79 JOUINES Rémi/BONICEL Adrien Peugeot 207 Rc R 3 14:49,9 +02:31,8 +00:00,2
61 95 GOUY Quentin/THILLIEZ Quentin Citroën C2 R2 R 2 14:51,8 +02:33,7 +00:01,9
62 80 GUINCHARD Emmanuel/CHATELAIN Mickaël Peugeot 207 Rc R 3 14:51,8 +02:33,7
63 132 SABATIER Florent/SANTIAGO Thomas Peugeot 106 S16 FA 6 14:55,1 +02:37,0 +00:03,3 1 2
64 113 BLANCK Lionel/BLANCK Arnaud Peugeot 206 Rc F2 14 15:03,1 +02:45,0 +00:08,0
65 90 COLOMBE Geoffroy/FABREGUE Régis Peugeot 206 XS FA 6K 15:04,9 +02:46,8 +00:01,8
66 102 SOUFFEZ Frédéric/PRUVOST Astrid Peugeot 206 Rc FA 7 15:07,9 +02:49,8 +00:03,0 1 2
67 96 PUVERIC Gilles/LE BORGNE Didier Peugeot 208 VTI R 2 15:08,5 +02:50,4 +00:00,6
68 89 CREPIN Maude/FRANCOIS Léa Citroën Saxo T4 FA 6K 15:11,4 +02:53,3 +00:02,9
69 71 RAMBAUD Sébastien/RICOU Brice Peugeot 208 VTI R 2 15:12,7 +02:54,6 +00:01,3 3
70 125 BELLIARDO Daniel/BRAQUET Jean-Baptiste Peugeot 306 S16 FN 3 15:15,0 +02:56,9 +00:02,3
71 87 SALGUES Gilles/MOUYSSET Jérôme Citroën Saxo T4 FA 6K 15:15,9 +02:57,8 +00:00,9
72 98 DEFANTE Romain/TEMPIER Romain Ford Fiesta R2 R 2 15:19,6 +03:01,5 +00:03,7
73 138 CAYLA Corentin/DUMAS Bastien Citroën Saxo VTS F2 13 15:20,2 +03:02,1 +00:00,6
74 85 GRIMAUD Roger/GRIMAUD Laurent Citroën Saxo T4 FA 6K 15:20,9 +03:02,8 +00:00,7
75 127 LESCURE Philippe/ESCAICH Bertrand Peugeot 306 S16 FN 3 15:23,1 +03:05,0 +00:02,2
76 99 FOTIA Anthony/MILLET Kévin Ford Fiesta R2 R 2 15:25,5 +03:07,4 +00:02,4
77 28 GIL Stéphane/MORGET Arnaud Subaru Impreza WRX FA 8 15:25,7 +03:07,6 +00:00,2
78 97 MARGAILLAN Hugo/POUJOL Sébastien Ford Fiesta R2 R 2 15:26,7 +03:08,6 +00:01,0
79 111 PILLARD Cédric/NOHARET Laurent Peugeot 206 Rc F2 14 15:27,8 +03:09,7 +00:01,1 1 2
80 47 CAMPAGNOLI Gabriele/ARENA Nicola Subaru Impreza WRX N 4 15:30,6 +03:12,5 +00:02,8
81 149 RICHAUD Pascal/SENDJAKEDINE Mikael Suzuki Swift Sport FN 2 15:31,5 +03:13,4 +00:00,9 1 2
82 107 ROCHER Arnaud/PAULHAN Sabine Renault Clio RS FA 7 15:31,9 +03:13,8 +00:00,4
83 115 MORARD Philippe/GROLIER Cédric Citroën ZX 16V F2 14 15:32,1 +03:14,0 +00:00,2
84 114 BOUZID Lilian/VERGNES Antony Peugeot 306 S16 F2 14 15:32,5 +03:14,4 +00:00,4
85 120 RIEU Vincent/DEIXONNE Charles Renault Clio Ragnotti F2 14 15:34,3 +03:16,2 +00:01,8
86 91 BERTON Charlotte/TAILLANDIER Thomas Citroën Saxo T4 FA 6K 15:35,9 +03:17,8 +00:01,6
87 77 DAZY Jean-Pierre/LOIZEAUX Didier Renault Clio R3 R 3 15:37,2 +03:19,1 +00:01,3 1 2
88 126 VANTILLARD Jean-Marc/DARRAS Pascaline Peugeot 206 Rc FN 3 15:39,4 +03:21,3 +00:02,2
89 88 QUARROZ Damien/VOLPI Cécile Citroën Saxo T4 FA 6K 15:41,2 +03:23,1 +00:01,8
90 33 ROUGIER Régis/SOGNO Emilien Subaru Impreza WRX FA 8 15:42,4 +03:24,3 +00:01,2
91 92 BRENIAUX Sébastien/JACQUES Anthony Peugeot 206 XS FA 6K 15:42,9 +03:24,8 +00:00,5
92 135 RAMEL Olivier/BODENMANN Jacques-Victor Peugeot 106 GT FA 6 15:48,4 +03:30,3 +00:05,5
93 45 ECK Jean-Luc/ECK Aurélien Subaru Impreza N 4 15:48,6 +03:30,5 +00:00,2
94 117 ROUCOULY Mathieu/GILHODES Jean-Louis Peugeot 309 GTI 16S F2 14 15:50,0 +03:31,9 +00:01,4
95 78 BOUCHET Guillaume/BLAMPEY Fabien Peugeot 207 Rc R 3 15:51,5 +03:33,4 +00:01,5
96 136 FOURNIER Nicolas/VATTEAU Kévin Peugeot 206 XS F2 13 15:53,4 +03:35,3 +00:01,9
97 119 MOULIN François/BONNET Dorine Renault Clio RS F2 14 15:54,4 +03:36,3 +00:01,0
98 67 JAMET Jérémy/SECACHE Michaël Peugeot 208 VTI R 2 15:54,8 +03:36,7 +00:00,4 3
99 145 BRISSON Eddy/MASSON Pascal Suzuki Swift FN 2 15:56,2 +03:38,1 +00:01,4
100 134 RALITE Christophe/ABBAL Marie Peugeot 106 S16 FA 6 15:58,0 +03:39,9 +00:01,8
101 112 REGORD Hervé/REGORD Camille Peugeot 205 GTI F2 14 16:02,4 +03:44,3 +00:04,4 1 2
102 151 ROCHE Ivan/GREVOT Florian Peugeot 106 XSI F2 12 16:15,8 +03:57,7 +00:13,4 1 2
103 35 MORDACQ Laurent/MORTIER Hervé Mitsubishi Lancer Evo9 R 4 16:16,6 +03:58,5 +00:00,8 1
104 123 BALMONET/MONICO Celia Peugeot 309 GTI F2 14 16:19,0 +04:00,9 +00:02,4
105 146 DOLGOPYATOFF Damien/FRANCOIS Solene Suzuki Swift FN 2 16:23,9 +04:05,8 +00:04,9
106 142 BRENGUES Jean-Marie/BRENGUES Mélanie Peugeot 205 GTI F2 13 16:30,2 +04:12,1 +00:06,3
107 129 GAGNEUR Hervé/LEIBENGUTH Christophe Peugeot 306 S16 FN 3 16:30,6 +04:12,5 +00:00,4
108 139 GELY Michel/VALENTIN Cédric Peugeot 206 XS F2 13 16:31,8 +04:13,7 +00:01,2
109 148 LATIEZE Yvan/GOUY Cindy Peugeot 106 S16 FN 2 16:32,6 +04:14,5 +00:00,8
110 118 SANHES Yves/SANHES Christine B.M.W. 318i Compact F2 14 16:34,3 +04:16,2 +00:01,7
111 106 GELLUSSEAU Luc/DEJOUX Charly Peugeot 306 S16 FA 7 16:42,3 +04:24,2 +00:08,0
112 144 TODESCHINI Florent/PORCHERON Giovanni Dacia Logan F2 13 16:44,0 +04:25,9 +00:01,7
113 104 FRELAUT Yohann/CASSAGNADE Pascal Peugeot 206 Rc FA 7 16:48,8 +04:30,7 +00:04,8
114 150 VAILLE Mickaël/SAVA-LOPEZ Sabrina Peugeot 205 GTI FN 2 16:49,8 +04:31,7 +00:01,0
115 140 VAYSSE Adrien/LAURENS Clément Peugeot 106 S16 F2 13 16:53,0 +04:34,9 +00:03,2
116 153 CEUGNET Sébastien/LUCON Pascal Peugeot 106 XSI FN 1 17:00,9 +04:42,8 +00:07,9
117 122 VIDAL Marc/MONTARON Loïc Peugeot 309 GTI F2 14 17:01,7 +04:43,6 +00:00,8
118 110 CLEMENT Frédéric/COSTES François Peugeot 206 GT F2 14 17:03,1 +04:45,0 +00:01,4 1 2
119 137 RAKOTOMALALA Andry/GORGET Chloé Peugeot 106 S16 F2 13 17:08,1 +04:50,0 +00:05,0
120 108 GUILLON Jean-Luc/GUILLON Thibault Peugeot 206 GT FA 7 17:16,0 +04:57,9 +00:07,9
121 152 VUITTENEZ Victorien/COTE COLISSON Maxime Peugeot 106 XSI FN 1 17:27,3 +05:09,2 +00:11,3
122 130 RESSOUCHE Charlotte/BARDOUX Pauline Ford Fiesta ST N 3 17:34,8 +05:16,7 +00:07,5
123 105 GAUTHIER Bernard/BLANQUET Muriel Peugeot 306 S16 FA 7 17:39,6 +05:21,5 +00:04,8
124 26 GLEY Jean-Pierre/AUBANEL Aurélien B.M.W. 325 iX FA 8 17:43,9 +05:25,8 +00:04,3
125 154 BES Yves/LE PICHON Christelle Peugeot 106 XR F2 11 18:22,7 +06:04,6 +00:38,8
126 141 PICARD Erick/PONTILLE Hervé Dacia Logan F2 13 18:40,2 +06:22,1 +00:17,5
127 147 DI PAOLO Alain/MORILLON Frederika Peugeot 106 S16 FN 2 18:42,6 +06:24,5 +00:02,4
128 155 SOUBIROUX Vincent/VIGUIE Florian Renault Clio F2 11 19:07,8 +06:49,7 +00:25,2
129 31 MARON-GIRARD Alain/GRENIER Bernard Mitsubishi Lancer Evo9 FA 8 22:22,3 +10:04,2 +03:14,5
130 103 TEVELLE Cédric/FACCIO Alexandra Peugeot 206 Rc FA 7 36:49,5 +24:31,4 +14:27,2
Clt Equipage Voiture Gr/Cl Temps Ecart 1er Ecart préc. Catégories
Commentaires: © PatricK Soft  
(Temps forfaitaires=couleur bleue)
Classés:130

Epreuve: Groupe: Catégorie:

 
Retour
Classement ES3-Gelles - Mas de Cance (21.000 km)